createdAt,value
2023-10-20T00:00:07.378Z,98785.88
2023-10-20T00:03:10.817Z,98793.44
2023-10-20T00:06:13.673Z,98781.28
2023-10-20T00:09:16.046Z,98785.88
2023-10-20T00:12:18.508Z,98778.09
2023-10-20T00:15:21.843Z,98797.81
2023-10-20T00:18:24.526Z,98783.31
2023-10-20T00:21:26.922Z,98792.28
2023-10-20T00:24:29.333Z,98801.22
2023-10-20T00:27:31.801Z,98794.06
2023-10-20T00:30:34.151Z,98804.69
2023-10-20T00:33:36.472Z,98802.72
2023-10-20T00:36:39.762Z,98800.81
2023-10-20T00:39:42.591Z,98801.38
2023-10-20T00:42:45.309Z,98782.06
2023-10-20T00:45:49.000Z,98788.22
2023-10-20T00:48:51.564Z,98781.59
2023-10-20T00:51:54.216Z,98793.41
2023-10-20T00:54:57.083Z,98779.69
2023-10-20T00:58:00.357Z,98776.88
2023-10-20T01:01:05.295Z,98768.34
2023-10-20T01:04:08.068Z,98762.72
2023-10-20T01:07:10.541Z,98759.72
2023-10-20T01:10:12.991Z,98776.81
2023-10-20T01:13:16.240Z,98773.09
2023-10-20T01:16:19.957Z,98769.75
2023-10-20T01:19:22.464Z,98770.81
2023-10-20T01:22:24.833Z,98773.84
2023-10-20T01:25:28.493Z,98758.63
2023-10-20T01:28:30.962Z,98765.75
2023-10-20T01:31:33.374Z,98757.84
2023-10-20T01:34:36.591Z,98737.44
2023-10-20T01:37:39.088Z,98736.34
2023-10-20T01:40:41.465Z,98732.56
2023-10-20T01:43:43.802Z,98730.09
2023-10-20T01:46:50.974Z,98730.47
2023-10-20T01:49:53.419Z,98728.59
2023-10-20T01:52:55.972Z,98734.81
2023-10-20T01:55:58.552Z,98730.00
2023-10-20T01:59:01.978Z,98738.13
2023-10-20T02:02:05.458Z,98724.28
2023-10-20T02:05:09.645Z,98740.97
2023-10-20T02:08:12.197Z,98728.09
2023-10-20T02:11:14.840Z,98727.06
2023-10-20T02:14:17.372Z,98709.69
2023-10-20T02:17:20.631Z,98717.38
2023-10-20T02:20:24.879Z,98707.91
2023-10-20T02:23:28.187Z,98707.47
2023-10-20T02:26:30.682Z,98701.69
2023-10-20T02:29:34.599Z,98697.66
2023-10-20T02:32:37.151Z,98694.22
2023-10-20T02:35:42.747Z,98703.34
2023-10-20T02:38:45.427Z,98706.78
2023-10-20T02:41:47.823Z,98704.75
2023-10-20T02:44:50.204Z,98700.75
2023-10-20T02:47:52.733Z,98705.25
2023-10-20T02:50:55.154Z,98698.72
2023-10-20T02:53:57.548Z,98704.63
2023-10-20T02:56:59.982Z,98701.41
2023-10-20T03:00:02.319Z,98700.97
2023-10-20T03:03:05.075Z,98704.88
2023-10-20T03:06:10.568Z,98712.69
2023-10-20T03:09:14.778Z,98713.00
2023-10-20T03:12:17.294Z,98708.06
2023-10-20T03:15:19.812Z,98702.63
2023-10-20T03:18:22.357Z,98707.94
2023-10-20T03:21:24.931Z,98708.22
2023-10-20T03:24:27.304Z,98709.25
2023-10-20T03:27:31.003Z,98703.81
2023-10-20T03:30:43.464Z,98707.25
2023-10-20T03:33:45.889Z,98699.19
2023-10-20T03:36:48.322Z,98684.41
2023-10-20T03:39:51.850Z,98668.09
2023-10-20T03:42:54.244Z,98678.72
2023-10-20T03:45:57.977Z,98689.94
2023-10-20T03:49:00.777Z,98691.63
2023-10-20T03:52:04.150Z,98682.28
2023-10-20T03:55:09.826Z,98675.41
2023-10-20T03:58:12.642Z,98673.16
2023-10-20T04:01:15.351Z,98670.56
2023-10-20T04:04:18.698Z,98658.75
2023-10-20T04:07:21.096Z,98662.75
2023-10-20T04:10:24.309Z,98660.16
2023-10-20T04:13:27.325Z,98654.31
2023-10-20T04:16:30.401Z,98653.69
2023-10-20T04:19:33.970Z,98651.47
2023-10-20T04:22:40.120Z,98656.81
2023-10-20T04:25:53.757Z,98656.44
2023-10-20T04:29:14.254Z,98646.84
2023-10-20T04:32:49.107Z,98645.56
2023-10-20T04:36:10.890Z,98639.53
2023-10-20T04:39:31.602Z,98633.81
2023-10-20T04:42:36.557Z,98633.72
2023-10-20T04:45:47.961Z,98646.31
2023-10-20T04:48:59.026Z,98635.75
2023-10-20T04:52:39.172Z,98653.03
2023-10-20T04:56:16.587Z,98660.00
2023-10-20T04:59:24.285Z,98648.03
2023-10-20T05:02:40.838Z,98654.91
2023-10-20T05:05:55.149Z,98639.50
2023-10-20T05:08:57.620Z,98641.28
2023-10-20T05:12:00.134Z,98645.16
2023-10-20T05:15:02.496Z,98639.19
2023-10-20T05:18:05.251Z,98647.78
2023-10-20T05:21:13.476Z,98651.19
2023-10-20T05:24:15.998Z,98657.13
2023-10-20T05:27:18.338Z,98653.44
2023-10-20T05:30:20.725Z,98665.78
2023-10-20T05:33:23.134Z,98656.75
2023-10-20T05:36:25.637Z,98669.19
2023-10-20T05:39:27.988Z,98664.91
2023-10-20T05:42:30.832Z,98654.56
2023-10-20T05:45:41.137Z,98666.34
2023-10-20T05:48:43.941Z,98659.63
2023-10-20T05:51:46.551Z,98670.56
2023-10-20T05:54:49.022Z,98676.91
2023-10-20T05:57:51.369Z,98676.19
2023-10-20T06:01:02.895Z,98674.91
2023-10-20T06:04:05.872Z,98682.66
2023-10-20T06:07:08.370Z,98671.97
2023-10-20T06:10:15.223Z,98666.03
2023-10-20T06:13:17.705Z,98666.94
2023-10-20T06:16:21.514Z,98677.56
2023-10-20T06:19:24.961Z,98676.63
2023-10-20T06:22:27.961Z,98680.19
2023-10-20T06:25:32.489Z,98681.53
2023-10-20T06:28:35.214Z,98687.00
2023-10-20T06:31:43.524Z,98682.59
2023-10-20T06:34:47.630Z,98700.44
2023-10-20T06:38:12.832Z,98690.13
2023-10-20T06:41:15.484Z,98677.78
2023-10-20T06:44:18.106Z,98684.13
2023-10-20T06:47:21.730Z,98672.41
2023-10-20T06:50:24.357Z,98674.22
2023-10-20T06:53:26.756Z,98680.56
2023-10-20T06:56:29.309Z,98690.47
2023-10-20T06:59:31.818Z,98679.09
2023-10-20T07:02:34.351Z,98674.31
2023-10-20T07:05:38.918Z,98657.56
2023-10-20T07:08:41.601Z,98658.56
2023-10-20T07:11:44.508Z,98659.00
2023-10-20T07:14:47.032Z,98657.19
2023-10-20T07:17:50.024Z,98666.84
2023-10-20T07:20:56.065Z,98663.09
2023-10-20T07:24:00.052Z,98659.66
2023-10-20T07:27:06.927Z,98656.91
2023-10-20T07:30:12.014Z,98652.91
2023-10-20T07:33:14.746Z,98657.84
2023-10-20T07:36:17.853Z,98664.22
2023-10-20T07:39:20.367Z,98657.19
2023-10-20T07:42:23.170Z,98663.16
2023-10-20T07:45:26.789Z,98666.97
2023-10-20T07:48:29.589Z,98664.19
2023-10-20T07:51:34.297Z,98658.00
2023-10-20T07:54:36.899Z,98663.69
2023-10-20T07:57:39.259Z,98660.88
2023-10-20T08:00:41.625Z,98663.81
2023-10-20T08:03:49.211Z,98672.50
2023-10-20T08:06:52.164Z,98667.09
2023-10-20T08:09:54.655Z,98673.63
2023-10-20T08:12:57.355Z,98668.94
2023-10-20T08:16:02.342Z,98655.41
2023-10-20T08:19:04.862Z,98647.28
2023-10-20T08:22:07.220Z,98660.94
2023-10-20T08:25:10.219Z,98667.63
2023-10-20T08:28:12.790Z,98663.25
2023-10-20T08:31:15.686Z,98669.47
2023-10-20T08:34:18.185Z,98674.34
2023-10-20T08:37:20.912Z,98688.97
2023-10-20T08:40:23.305Z,98692.34
2023-10-20T08:43:27.010Z,98696.34
2023-10-20T08:46:29.418Z,98695.59
2023-10-20T08:49:31.947Z,98712.34
2023-10-20T08:52:35.905Z,98706.13
2023-10-20T08:55:38.677Z,98715.34
2023-10-20T08:58:46.632Z,98718.88
2023-10-20T09:01:49.214Z,98713.47
2023-10-20T09:04:52.728Z,98690.19
2023-10-20T09:07:56.382Z,98683.81
2023-10-20T09:10:58.862Z,98666.78
2023-10-20T09:14:02.266Z,98654.97
2023-10-20T09:17:05.247Z,98662.53
2023-10-20T09:20:12.658Z,98656.78
2023-10-20T09:23:15.172Z,98654.31
2023-10-20T09:26:17.592Z,98673.09
2023-10-20T09:29:22.653Z,98671.88
2023-10-20T09:32:25.235Z,98664.56
2023-10-20T09:35:27.865Z,98669.94
2023-10-20T09:38:33.234Z,98661.13
2023-10-20T09:41:43.924Z,98658.91
2023-10-20T09:44:52.571Z,98659.22
2023-10-20T09:48:01.722Z,98651.22
2023-10-20T09:51:05.798Z,98654.13
2023-10-20T09:54:08.333Z,98652.75
2023-10-20T09:57:14.086Z,98647.44
2023-10-20T10:00:20.455Z,98646.78
2023-10-20T10:03:39.366Z,98652.94
2023-10-20T10:06:46.868Z,98640.03
2023-10-20T10:09:53.455Z,98649.25
2023-10-20T10:13:03.593Z,98634.09
2023-10-20T10:16:15.344Z,98630.19
2023-10-20T10:19:19.122Z,98638.59
2023-10-20T10:22:29.426Z,98630.66
2023-10-20T10:25:40.621Z,98626.13
2023-10-20T10:28:50.112Z,98619.19
2023-10-20T10:32:06.809Z,98624.06
2023-10-20T10:35:16.989Z,98615.25
2023-10-20T10:38:21.434Z,98613.19
2023-10-20T10:41:24.808Z,98595.53
2023-10-20T10:44:27.437Z,98595.50
2023-10-20T10:47:29.867Z,98596.00
2023-10-20T10:50:33.968Z,98578.59
2023-10-20T10:53:36.419Z,98567.78
2023-10-20T10:56:38.841Z,98572.81
2023-10-20T10:59:41.574Z,98568.84
2023-10-20T11:02:45.617Z,98557.28
2023-10-20T11:05:48.810Z,98544.16
2023-10-20T11:08:52.804Z,98539.28
2023-10-20T11:11:55.215Z,98561.28
2023-10-20T11:15:00.278Z,98549.06
2023-10-20T11:18:04.211Z,98553.75
2023-10-20T11:21:07.073Z,98568.53
2023-10-20T11:24:10.144Z,98571.47
2023-10-20T11:27:13.994Z,98570.97
2023-10-20T11:30:16.584Z,98559.44
2023-10-20T11:33:20.339Z,98561.13
2023-10-20T11:36:22.793Z,98556.28
2023-10-20T11:39:28.440Z,98544.91
2023-10-20T11:42:30.842Z,98531.56
2023-10-20T11:45:33.253Z,98535.47
2023-10-20T11:48:35.714Z,98541.69
2023-10-20T11:51:39.982Z,98526.94
2023-10-20T11:54:42.541Z,98536.56
2023-10-20T11:57:44.935Z,98539.50
2023-10-20T12:00:47.451Z,98535.72
2023-10-20T12:03:49.949Z,98535.78
2023-10-20T12:06:53.591Z,98530.53
2023-10-20T12:09:55.992Z,98521.97
2023-10-20T12:13:03.419Z,98520.78
2023-10-20T12:16:06.525Z,98496.28
2023-10-20T12:19:09.036Z,98500.22
2023-10-20T12:22:11.389Z,98483.13
2023-10-20T12:25:13.772Z,98480.63
2023-10-20T12:28:17.935Z,98487.66
2023-10-20T12:31:20.427Z,98494.84
2023-10-20T12:34:22.881Z,98480.53
2023-10-20T12:37:25.201Z,98460.34
2023-10-20T12:40:27.583Z,98462.06
2023-10-20T12:43:30.027Z,98448.13
2023-10-20T12:46:32.470Z,98453.16
2023-10-20T12:49:34.924Z,98441.13
2023-10-20T12:52:37.817Z,98437.31
2023-10-20T12:55:40.655Z,98449.59
2023-10-20T12:58:42.978Z,98445.22
2023-10-20T13:01:45.372Z,98451.50
2023-10-20T13:04:48.042Z,98449.06
2023-10-20T13:07:54.477Z,98437.28
2023-10-20T13:10:57.364Z,98440.34
2023-10-20T13:14:00.178Z,98425.59
2023-10-20T13:17:02.553Z,98406.50
2023-10-20T13:20:07.155Z,98411.97
2023-10-20T13:23:09.680Z,98420.75
2023-10-20T13:26:12.169Z,98431.91
2023-10-20T13:29:14.536Z,98420.66
2023-10-20T13:32:16.935Z,98415.38
2023-10-20T13:35:19.830Z,98418.78
2023-10-20T13:38:32.674Z,98415.19
2023-10-20T13:41:35.367Z,98406.34
2023-10-20T13:44:37.895Z,98405.06
2023-10-20T13:47:40.497Z,98412.09
2023-10-20T13:50:42.992Z,98408.25
2023-10-20T13:53:45.752Z,98406.44
2023-10-20T13:56:48.237Z,98407.00
2023-10-20T13:59:50.721Z,98406.00
2023-10-20T14:02:54.784Z,98399.16
2023-10-20T14:05:57.651Z,98402.97
2023-10-20T14:09:01.026Z,98393.41
2023-10-20T14:12:03.574Z,98397.16
2023-10-20T14:15:06.507Z,98390.78
2023-10-20T14:18:08.940Z,98386.94
2023-10-20T14:21:11.433Z,98392.69
2023-10-20T14:24:13.840Z,98389.78
2023-10-20T14:27:16.192Z,98390.44
2023-10-20T14:30:18.530Z,98377.22
2023-10-20T14:33:21.157Z,98375.75
2023-10-20T14:36:24.020Z,98383.50
2023-10-20T14:39:26.430Z,98379.50
2023-10-20T14:42:28.788Z,98377.22
2023-10-20T14:45:31.257Z,98379.88
2023-10-20T14:48:34.701Z,98382.59
2023-10-20T14:51:37.199Z,98374.78
2023-10-20T14:54:40.345Z,98374.03
2023-10-20T14:57:42.824Z,98379.88
2023-10-20T15:00:46.474Z,98385.50
2023-10-20T15:03:48.970Z,98387.84
2023-10-20T15:06:51.422Z,98388.03
2023-10-20T15:09:55.278Z,98389.41
2023-10-20T15:12:57.674Z,98385.31
2023-10-20T15:16:05.944Z,98382.47
2023-10-20T15:19:08.733Z,98377.03
2023-10-20T15:22:11.286Z,98384.69
2023-10-20T15:25:13.651Z,98396.41
2023-10-20T15:28:16.219Z,98401.97
2023-10-20T15:31:18.639Z,98419.25
2023-10-20T15:34:21.066Z,98419.44
2023-10-20T15:37:26.087Z,98420.44
2023-10-20T15:40:28.876Z,98425.22
2023-10-20T15:43:31.742Z,98423.72
2023-10-20T15:46:36.080Z,98431.81
2023-10-20T15:49:38.412Z,98435.63
2023-10-20T15:52:40.731Z,98442.72
2023-10-20T15:55:44.689Z,98443.03
2023-10-20T15:58:48.912Z,98447.69
2023-10-20T16:01:51.413Z,98433.38
2023-10-20T16:04:54.327Z,98444.22
2023-10-20T16:07:56.884Z,98435.28
2023-10-20T16:10:59.275Z,98442.03
2023-10-20T16:14:01.702Z,98446.47
2023-10-20T16:17:04.191Z,98451.56
2023-10-20T16:20:07.295Z,98450.41
2023-10-20T16:23:09.964Z,98447.88
2023-10-20T16:26:12.470Z,98460.50
2023-10-20T16:29:14.893Z,98466.34
2023-10-20T16:32:17.418Z,98466.16
2023-10-20T16:35:19.752Z,98479.69
2023-10-20T16:38:22.292Z,98478.06
2023-10-20T16:41:25.945Z,98476.72
2023-10-20T16:44:28.591Z,98479.38
2023-10-20T16:47:31.150Z,98468.28
2023-10-20T16:50:33.612Z,98478.31
2023-10-20T16:53:36.570Z,98476.03
2023-10-20T16:56:39.363Z,98479.66
2023-10-20T16:59:41.835Z,98485.34
2023-10-20T17:02:45.478Z,98488.34
2023-10-20T17:05:48.088Z,98484.69
2023-10-20T17:08:51.192Z,98484.31
2023-10-20T17:11:53.620Z,98493.97
2023-10-20T17:14:55.964Z,98499.75
2023-10-20T17:17:58.469Z,98493.25
2023-10-20T17:21:04.685Z,98495.53
2023-10-20T17:24:09.328Z,98494.03
2023-10-20T17:27:11.786Z,98485.56
2023-10-20T17:30:14.258Z,98483.31
2023-10-20T17:33:17.961Z,98469.72
2023-10-20T17:36:20.407Z,98483.47
2023-10-20T17:39:23.402Z,98478.19
2023-10-20T17:42:25.858Z,98482.56
2023-10-20T17:45:28.323Z,98484.88
2023-10-20T17:48:30.976Z,98488.81
2023-10-20T17:51:33.707Z,98496.91
2023-10-20T17:54:36.048Z,98493.50
2023-10-20T17:57:38.612Z,98498.13
2023-10-20T18:00:42.156Z,98499.28
2023-10-20T18:03:44.862Z,98490.66
2023-10-20T18:06:47.740Z,98505.38
2023-10-20T18:09:50.603Z,98487.59
2023-10-20T18:12:52.979Z,98486.66
2023-10-20T18:15:55.579Z,98487.53
2023-10-20T18:18:58.142Z,98497.59
2023-10-20T18:22:00.742Z,98498.59
2023-10-20T18:25:04.250Z,98489.75
2023-10-20T18:28:07.380Z,98490.13
2023-10-20T18:31:12.745Z,98503.06
2023-10-20T18:34:15.275Z,98514.31
2023-10-20T18:37:17.903Z,98520.72
2023-10-20T18:40:20.590Z,98524.19
2023-10-20T18:43:23.211Z,98529.34
2023-10-20T18:46:27.563Z,98529.81
2023-10-20T18:49:30.364Z,98531.88
2023-10-20T18:52:33.087Z,98542.59
2023-10-20T18:55:35.777Z,98527.66
2023-10-20T18:58:38.438Z,98540.16
2023-10-20T19:01:40.884Z,98539.41
2023-10-20T19:04:43.788Z,98552.16
2023-10-20T19:07:46.508Z,98552.66
2023-10-20T19:10:49.292Z,98559.44
2023-10-20T19:13:52.694Z,98547.59
2023-10-20T19:16:55.484Z,98550.56
2023-10-20T19:19:59.209Z,98561.41
2023-10-20T19:23:03.831Z,98551.22
2023-10-20T19:26:10.971Z,98559.13
2023-10-20T19:29:13.349Z,98567.66
2023-10-20T19:32:15.842Z,98568.81
2023-10-20T19:35:18.691Z,98567.84
2023-10-20T19:38:21.521Z,98570.47
2023-10-20T19:41:23.912Z,98565.84
2023-10-20T19:44:26.325Z,98563.22
2023-10-20T19:47:28.717Z,98555.66
2023-10-20T19:50:31.217Z,98563.22
2023-10-20T19:53:33.650Z,98576.06
2023-10-20T19:56:36.425Z,98575.25
2023-10-20T19:59:39.006Z,98587.88
2023-10-20T20:02:42.221Z,98584.41
2023-10-20T20:05:44.854Z,98585.69
2023-10-20T20:08:47.312Z,98605.41
2023-10-20T20:11:49.755Z,98597.28
2023-10-20T20:14:52.230Z,98584.41
2023-10-20T20:17:56.479Z,98601.63
2023-10-20T20:20:59.173Z,98597.00
2023-10-20T20:24:01.560Z,98592.03
2023-10-20T20:27:04.299Z,98600.31
2023-10-20T20:30:07.390Z,98595.84
2023-10-20T20:33:10.088Z,98601.66
2023-10-20T20:36:12.568Z,98598.03
2023-10-20T20:39:15.092Z,98603.28
2023-10-20T20:42:18.092Z,98608.84
2023-10-20T20:45:20.477Z,98618.53
2023-10-20T20:48:23.026Z,98611.47
2023-10-20T20:51:25.582Z,98619.16
2023-10-20T20:54:27.984Z,98630.38
2023-10-20T20:57:30.333Z,98623.31
2023-10-20T21:00:32.966Z,98623.78
2023-10-20T21:03:35.909Z,98634.31
2023-10-20T21:06:38.486Z,98629.91
2023-10-20T21:09:40.932Z,98632.72
2023-10-20T21:12:43.311Z,98625.94
2023-10-20T21:15:45.733Z,98633.31
2023-10-20T21:18:49.319Z,98646.88
2023-10-20T21:21:51.757Z,98648.44
2023-10-20T21:25:00.448Z,98648.31
2023-10-20T21:28:04.451Z,98640.63
2023-10-20T21:31:07.019Z,98650.25
2023-10-20T21:34:09.403Z,98641.66
2023-10-20T21:37:11.812Z,98637.00
2023-10-20T21:40:14.181Z,98636.28
2023-10-20T21:43:16.642Z,98650.41
2023-10-20T21:46:19.192Z,98635.19
2023-10-20T21:49:21.536Z,98631.78
2023-10-20T21:52:23.862Z,98655.22
2023-10-20T21:55:26.293Z,98648.66
2023-10-20T21:58:29.042Z,98648.00
2023-10-20T22:01:31.482Z,98662.25
2023-10-20T22:04:33.925Z,98658.66
2023-10-20T22:07:38.454Z,98658.19
2023-10-20T22:10:42.271Z,98678.97
2023-10-20T22:13:44.750Z,98668.41
2023-10-20T22:16:47.176Z,98659.19
2023-10-20T22:19:49.641Z,98674.66
2023-10-20T22:22:52.018Z,98691.16
2023-10-20T22:25:54.846Z,98694.06
2023-10-20T22:28:57.347Z,98687.56
2023-10-20T22:32:00.065Z,98682.09
2023-10-20T22:35:03.156Z,98688.66
2023-10-20T22:38:06.298Z,98694.94
2023-10-20T22:41:08.639Z,98693.06
2023-10-20T22:44:11.590Z,98694.00
2023-10-20T22:47:13.985Z,98687.03
2023-10-20T22:50:19.439Z,98704.50
2023-10-20T22:53:21.987Z,98690.06
2023-10-20T22:56:24.396Z,98688.69
2023-10-20T22:59:26.899Z,98693.41
2023-10-20T23:02:29.322Z,98694.25
2023-10-20T23:05:31.732Z,98685.09
2023-10-20T23:08:34.443Z,98698.88
2023-10-20T23:11:36.865Z,98686.44
2023-10-20T23:14:39.247Z,98701.44
2023-10-20T23:17:41.681Z,98690.41
2023-10-20T23:20:44.153Z,98708.09
2023-10-20T23:23:46.646Z,98711.78
2023-10-20T23:26:48.999Z,98715.31
2023-10-20T23:29:51.438Z,98716.13
2023-10-20T23:32:53.926Z,98728.50
2023-10-20T23:35:57.700Z,98742.00
2023-10-20T23:39:00.091Z,98744.34
2023-10-20T23:42:02.550Z,98744.84
2023-10-20T23:45:05.680Z,98741.41
2023-10-20T23:48:08.106Z,98744.41
2023-10-20T23:51:10.592Z,98741.16
2023-10-20T23:54:13.188Z,98750.84
2023-10-20T23:57:15.607Z,98759.53
